Flight Track Log - Related Links

Times and Time Zones

All times are in EDT time to prevent confusion due to time zone crossing. See the AWE1940 flight status page for this flight to view local times or setup timezone preferences in your user account.

Time Position Orientation Groundspeed Altitude Reporting Facility
EDT Latitude Longitude Course Direction KTS MPH feet Rate Location/Type
Sun 06:39:17 PM 29.9547 -95.3372 90° East 179 206 1,100  Level Houston Center
Sun 06:40:31 PM 29.9289 -95.2608 111° Southeast 226 260 3,700 1,513 Climbing Houston Center
Sun 06:41:00 PM 29.9834 -94.9009 90° East  Level FlightAware Approximate
Sun 06:41:12 PM 29.9181 -95.2197 107° East 224 258 4,000  Level Houston Center
Sun 06:41:27 PM 29.9097 -95.1883 107° East 270 311 4,000 1,645 Level Houston Center
Sun 06:42:00 PM 29.9834 -94.7568 90° East  Level FlightAware Approximate
Sun 06:42:14 PM 29.9136 -95.1364 85° East 264 304 5,700  Level Houston Center
Sun 06:42:34 PM 29.9158 -95.0983 86° East 267 307 7,300 3,097 Climbing Houston Center
Sun 06:43:00 PM 29.9833 -94.6127 90° East  Level FlightAware Approximate
Sun 06:43:16 PM 29.9219 -95.0517 81° East 264 304 8,900  Level Houston Center
Sun 06:43:35 PM 29.9261 -95.0056 84° East 275 316 10,300 2,656 Climbing Houston Center
Sun 06:44:00 PM 29.9833 -94.4686 90° East  Level FlightAware Approximate
Sun 06:44:17 PM 29.9336 -94.9381 83° East 295 339 11,600  Level Houston Center
Sun 06:45:20 PM 29.9447 -94.8247 84° East 347 399 13,400 2,032 Climbing Houston Center
Sun 06:46:21 PM 29.9603 -94.7000 82° East 387 445 15,800 2,098 Climbing Houston Center
Sun 06:47:23 PM 29.9767 -94.5708 82° East 404 465 17,700 2,049 Climbing Houston Center
Sun 06:48:24 PM 29.9911 -94.4369 83° East 417 480 20,000 2,098 Climbing Houston Center
Sun 06:49:26 PM 30.0092 -94.2975 81° East 434 499 22,000 1,694 Climbing Houston Center
Sun 06:50:28 PM 30.0250 -94.1586 82° East 439 505 23,500 1,694 Climbing Houston Center
Sun 06:51:30 PM 30.0458 -93.9817 82° East 460 529 25,500 1,512 Climbing Houston Center
Sun 06:52:31 PM 30.0628 -93.8311 83° East 473 544 26,600 1,171 Climbing Houston Center
Sun 06:53:33 PM 30.0808 -93.6739 82° East 493 567 27,900 919 Climbing Houston Center
Sun 06:54:35 PM 30.0983 -93.5128 83° East 512 589 28,500 871 Climbing Houston Center
Sun 06:55:37 PM 30.1172 -93.3444 83° East 535 616 29,700 1,548 Climbing Houston Center
Sun 06:56:39 PM 30.1386 -93.1456 83° East 527 606 31,700 1,415 Climbing Houston Center
Sun 06:57:40 PM 30.1925 -92.9906 68° East 527 606 32,600 585 Climbing Houston Center
Sun 06:58:42 PM 30.2606 -92.8414 62° Northeast 528 608 32,900 145 Climbing Houston Center
Sun 06:59:44 PM 30.3275 -92.6908 63° Northeast 530 610 32,900  Level Houston Center
Sun 07:00:46 PM 30.3950 -92.5392 63° Northeast 531 611 32,900  Level Houston Center
Sun 07:01:48 PM 30.4731 -92.3644 63° Northeast 529 609 32,900  Level Houston Center
Sun 07:02:50 PM 30.5397 -92.2142 63° Northeast 528 608 32,900  Level Houston Center
Sun 07:03:52 PM 30.6061 -92.0647 63° Northeast 526 605 32,900  Level Houston Center
Sun 07:04:54 PM 30.6717 -91.9139 63° Northeast 526 605 32,900  Level Houston Center
Sun 07:05:55 PM 30.7389 -91.7636 62° Northeast 526 605 32,900  Level Houston Center
Sun 07:06:57 PM 30.8178 -91.5819 63° Northeast 528 608 32,900  Level Houston Center
Sun 07:07:59 PM 30.8839 -91.4306 63° Northeast 527 606 32,900  Level Houston Center
Sun 07:09:00 PM 30.9492 -91.2783 63° Northeast 528 608 32,900  Level Houston Center
Sun 07:10:02 PM 31.0178 -91.1164 64° Northeast 532 612 32,900  Level Houston Center
Sun 07:11:04 PM 31.0847 -90.9617 63° Northeast 534 615 32,900  Level Houston Center
Sun 07:12:06 PM 31.1508 -90.8044 64° Northeast 537 618 32,900  Level Houston Center
Sun 07:13:08 PM 31.2178 -90.6483 63° Northeast 536 617 32,900  Level Houston Center
Sun 07:14:10 PM 31.2839 -90.4906 64° Northeast 539 620 32,900  Level Houston Center
Sun 07:15:11 PM 31.3503 -90.3333 64° Northeast 538 619 32,900  Level Houston Center
Sun 07:16:13 PM 31.4292 -90.1419 64° Northeast 542 624 32,900  Level Houston Center
Sun 07:17:15 PM 31.4953 -89.9847 64° Northeast 538 619 32,900  Level Houston Center
Sun 07:18:17 PM 31.5622 -89.8261 64° Northeast 541 623 32,900  Level Houston Center
Sun 07:19:19 PM 31.6267 -89.6667 65° Northeast 540 621 32,900  Level Houston Center
Sun 07:20:21 PM 31.6933 -89.5072 64° Northeast 539 620 32,900  Level Houston Center
Sun 07:21:23 PM 31.7558 -89.3486 65° Northeast 536 617 32,900  Level Houston Center
Sun 07:21:56 PM 31.7986 -89.2525 62° Northeast 529 609 32,900  Level Memphis Center
Sun 07:22:56 PM 31.8556 -89.1028 66° East 517 595 32,900  Level Memphis Center
Sun 07:23:56 PM 31.9228 -88.9450 63° Northeast 517 595 32,900  Level Memphis Center
Sun 07:24:56 PM 31.9897 -88.7825 64° Northeast 529 609 32,900  Level Memphis Center
Sun 07:26:32 PM 32.0844 -88.5383 65° Northeast 539 620 32,900  Level Houston Center
Sun 07:27:10 PM 32.1297 -88.4336 63° Northeast 540 621 32,900  Level Atlanta Center
Sun 07:28:10 PM 32.1936 -88.2750 65° Northeast 540 621 32,900  Level Atlanta Center
Sun 07:29:10 PM 32.2575 -88.1133 65° Northeast 540 621 32,900  Level Atlanta Center
Sun 07:30:10 PM 32.3233 -87.9517 64° Northeast 540 621 32,900  Level Atlanta Center
Sun 07:31:10 PM 32.3867 -87.7922 65° Northeast 540 621 32,900  Level Atlanta Center
Sun 07:32:10 PM 32.4500 -87.6275 65° Northeast 540 621 32,900  Level Atlanta Center
Sun 07:33:10 PM 32.5111 -87.4600 67° East 545 627 32,900  Level Atlanta Center
Sun 07:34:10 PM 32.5739 -87.2972 65° Northeast 545 627 32,900  Level Atlanta Center
Sun 07:35:10 PM 32.6344 -87.1344 66° East 545 627 32,900  Level Atlanta Center
Sun 07:36:10 PM 32.7011 -86.9664 65° Northeast 545 627 32,900  Level Atlanta Center
Sun 07:37:10 PM 32.7572 -86.8028 68° East 545 627 32,900  Level Atlanta Center
Sun 07:38:10 PM 32.8153 -86.6339 68° East 542 624 32,900 -300 Level Atlanta Center
Sun 07:39:10 PM 32.8728 -86.4675 68° East 542 624 32,300 -750 Descending Atlanta Center
Sun 07:40:10 PM 32.9281 -86.3033 68° East 542 624 31,400 -700 Descending Atlanta Center
Sun 07:41:10 PM 32.9853 -86.1364 68° East 531 611 30,900 -250 Descending Atlanta Center
Sun 07:42:10 PM 33.0422 -85.9717 68° East 531 611 30,900  Level Atlanta Center
Sun 07:43:10 PM 33.0969 -85.8019 69° East 531 611 30,900  Level Atlanta Center
Sun 07:44:10 PM 33.1514 -85.6367 68° East 531 611 30,900  Level Atlanta Center
Sun 07:45:10 PM 33.2033 -85.4911 67° East 531 611 30,900  Level Atlanta Center
Sun 07:46:10 PM 33.2639 -85.3083 68° East 531 611 30,900  Level Atlanta Center
Sun 07:47:10 PM 33.3197 -85.1375 69° East 537 618 30,900  Level Atlanta Center
Sun 07:48:10 PM 33.3797 -84.9542 69° East 537 618 30,900  Level Atlanta Center
Sun 07:49:10 PM 33.4331 -84.7856 69° East 537 618 30,900  Level Atlanta Center
Sun 07:50:10 PM 33.4881 -84.6142 69° East 542 624 30,900 -200 Level Atlanta Center
Sun 07:51:10 PM 33.5411 -84.4475 69° East 542 624 30,500 -700 Descending Atlanta Center
Sun 07:52:10 PM 33.5958 -84.2783 69° East 549 632 29,500 -800 Descending Atlanta Center
Sun 07:53:10 PM 33.6503 -84.1061 69° East 543 625 28,900 -300 Descending Atlanta Center
Sun 07:54:10 PM 33.7044 -83.9414 68° East 538 619 28,900 -50 Level Atlanta Center
Sun 07:55:10 PM 33.7583 -83.7714 69° East 538 619 28,800 -550 Descending Atlanta Center
Sun 07:56:10 PM 33.8122 -83.5989 69° East 538 619 27,800 -950 Descending Atlanta Center
Sun 07:57:10 PM 33.8617 -83.4333 70° East 532 612 26,900 -700 Descending Atlanta Center
Sun 07:58:10 PM 33.9256 -83.2778 64° Northeast 521 600 26,400 -700 Descending Atlanta Center
Sun 07:59:10 PM 33.9975 -83.1342 59° Northeast 501 577 25,500 -750 Descending Atlanta Center
Sun 08:00:10 PM 34.0611 -82.9906 62° Northeast 488 562 24,900 -400 Descending Atlanta Center
Sun 08:01:10 PM 34.1122 -82.8697 63° Northeast 471 542 24,700 -500 Descending Atlanta Center
Sun 08:02:10 PM 34.1878 -82.7153 59° Northeast 476 548 23,900 -400 Descending Atlanta Center
Sun 08:03:10 PM 34.2492 -82.5939 59° Northeast 465 535 23,900  Level Atlanta Center
Sun 08:04:10 PM 34.3142 -82.4569 60° Northeast 465 535 23,900  Level Atlanta Center
Sun 08:05:10 PM 34.3831 -82.3094 60° Northeast 482 555 23,900 -1,200 Level Atlanta Center
Sun 08:06:10 PM 34.4497 -82.1622 61° Northeast 489 563 21,500 -2,550 Descending Atlanta Center
Sun 08:07:10 PM 34.5144 -82.0194 61° Northeast 489 563 18,800 -2,700 Descending Atlanta Center
Sun 08:08:10 PM 34.5767 -81.8842 61° Northeast 476 548 16,100 -2,850 Descending Atlanta Center
Sun 08:09:10 PM 34.6453 -81.7436 59° Northeast 457 526 13,100 -3,077 Descending Atlanta Center
Sun 08:09:28 PM 34.6631 -81.6978 65° Northeast 433 498 12,100 -2,270 Descending Atlanta Center
Sun 08:09:47 PM 34.6833 -81.6617 56° Northeast 427 491 11,700 -857 Descending Atlanta Center
Sun 08:10:10 PM 34.6992 -81.6208 65° Northeast 425 489 11,500 -787 Descending Atlanta Center
Sun 08:10:48 PM 34.7311 -81.5492 62° Northeast 362 417 10,900 -500 Descending Atlanta Center
Sun 08:11:10 PM 34.7533 -81.5183 49° Northeast 377 434 11,000 98 Climbing Atlanta Center
Sun 08:11:49 PM 34.7919 -81.4689 46° Northeast 304 350 11,000 -700 Level Atlanta Center
Sun 08:12:10 PM 34.8058 -81.4306 66° East 326 375 10,300 -984 Descending Atlanta Center
Sun 08:12:50 PM 34.8172 -81.3694 77° East 303 349 10,000 -400 Descending Atlanta Center
Sun 08:13:10 PM 34.8228 -81.3417 76° East 302 348 9,900 -700 Descending Atlanta Center
Sun 08:13:50 PM 34.8358 -81.2778 76° East 261 300 9,300 -900 Descending Atlanta Center
Sun 08:14:10 PM 34.8375 -81.2550 85° East 277 319 9,000 -1,279 Descending Atlanta Center
Sun 08:14:51 PM 34.8547 -81.1886 72° East 248 285 8,000 -1,300 Descending Atlanta Center
Sun 08:15:10 PM 34.8564 -81.1733 82° East 253 291 7,700 -1,254 Descending Atlanta Center
Sun 08:15:58 PM 34.8650 -81.0972 82° East 243 280 6,600 -1,200 Descending Atlanta Center
Sun 08:17:10 PM 34.8672 -81.0136 88° East 231 266 5,300 -787 Descending Atlanta Center
Sun 08:18:00 PM 34.9036 -80.9642 48° Northeast 227 261 5,000 -150 Descending Atlanta Center
Sun 08:19:10 PM 34.9719 -80.9489 10° North 204 235 5,000 -414 Level Atlanta Center
Sun 08:19:56 PM 35.0203 -80.9547 354° North 218 251 4,200 -1,075 Descending Atlanta Center
Sun 08:20:56 PM 35.0808 -80.9600 356° North 191 220 3,100 -1,100 Descending Atlanta Center

Login

Don't have an account? Register now (free) for customized features, flight alerts, and more!